sensor_id;sensor_type;location;lat;lon;timestamp;pressure;altitude;pressure_sealevel;temperature;humidity
39491;BME280;25175;50.140;18.990;2023-04-26T00:01:38;97974.44;;;7.65;54.52
39491;BME280;25175;50.140;18.990;2023-04-26T00:08:52;97989.09;;;7.66;54.38
39491;BME280;25175;50.140;18.990;2023-04-26T00:12:02;97989.69;;;7.55;54.54
39491;BME280;25175;50.140;18.990;2023-04-26T00:15:09;97975.25;;;7.66;53.90
39491;BME280;25175;50.140;18.990;2023-04-26T00:18:14;97977.66;;;7.61;53.51
39491;BME280;25175;50.140;18.990;2023-04-26T00:21:21;97967.59;;;7.51;53.74
39491;BME280;25175;50.140;18.990;2023-04-26T00:24:26;97983.28;;;7.58;53.64
39491;BME280;25175;50.140;18.990;2023-04-26T00:27:35;97981.66;;;7.57;53.58
39491;BME280;25175;50.140;18.990;2023-04-26T00:30:41;97987.50;;;7.52;53.48
39491;BME280;25175;50.140;18.990;2023-04-26T00:33:50;97979.25;;;7.49;53.30
39491;BME280;25175;50.140;18.990;2023-04-26T00:36:57;97985.06;;;7.44;53.29
39491;BME280;25175;50.140;18.990;2023-04-26T00:40:04;98025.84;;;7.39;53.29
39491;BME280;25175;50.140;18.990;2023-04-26T00:43:15;97985.66;;;7.33;52.88
39491;BME280;25175;50.140;18.990;2023-04-26T00:46:21;97996.31;;;7.32;52.82
39491;BME280;25175;50.140;18.990;2023-04-26T00:49:38;97974.41;;;7.20;52.27
39491;BME280;25175;50.140;18.990;2023-04-26T00:56:35;97996.88;;;7.21;51.92
39491;BME280;25175;50.140;18.990;2023-04-26T00:59:48;98002.47;;;7.18;52.00
39491;BME280;25175;50.140;18.990;2023-04-26T01:02:58;97962.91;;;6.95;51.82
39491;BME280;25175;50.140;18.990;2023-04-26T01:06:04;97991.03;;;7.06;51.46
39491;BME280;25175;50.140;18.990;2023-04-26T01:09:11;98003.84;;;7.07;51.63
39491;BME280;25175;50.140;18.990;2023-04-26T01:12:18;98006.03;;;7.04;51.35
39491;BME280;25175;50.140;18.990;2023-04-26T01:15:34;97996.03;;;7.01;50.71
39491;BME280;25175;50.140;18.990;2023-04-26T01:18:43;97991.16;;;6.85;50.99
39491;BME280;25175;50.140;18.990;2023-04-26T01:21:57;98011.66;;;6.94;50.95
39491;BME280;25175;50.140;18.990;2023-04-26T01:25:16;98011.44;;;6.89;50.84
39491;BME280;25175;50.140;18.990;2023-04-26T01:28:23;98015.41;;;6.85;50.93
39491;BME280;25175;50.140;18.990;2023-04-26T01:31:30;98015.63;;;6.84;50.82
39491;BME280;25175;50.140;18.990;2023-04-26T01:34:43;97987.25;;;6.61;51.04
39491;BME280;25175;50.140;18.990;2023-04-26T01:37:57;98028.81;;;6.76;50.84
39491;BME280;25175;50.140;18.990;2023-04-26T01:41:20;98026.00;;;6.71;50.43
39491;BME280;25175;50.140;18.990;2023-04-26T01:44:25;98028.78;;;6.63;50.53
39491;BME280;25175;50.140;18.990;2023-04-26T01:47:36;98031.16;;;6.58;50.71
39491;BME280;25175;50.140;18.990;2023-04-26T01:50:41;98049.53;;;6.50;50.90
39491;BME280;25175;50.140;18.990;2023-04-26T01:53:48;98046.28;;;6.41;50.34
39491;BME280;25175;50.140;18.990;2023-04-26T01:56:56;98040.06;;;6.36;51.00
39491;BME280;25175;50.140;18.990;2023-04-26T02:00:07;98029.13;;;6.19;50.90
39491;BME280;25175;50.140;18.990;2023-04-26T02:03:34;98042.16;;;6.19;51.14
39491;BME280;25175;50.140;18.990;2023-04-26T02:06:42;98044.72;;;6.13;51.06
39491;BME280;25175;50.140;18.990;2023-04-26T02:09:47;98036.69;;;6.08;50.90
39491;BME280;25175;50.140;18.990;2023-04-26T02:12:56;98038.22;;;6.02;51.05
39491;BME280;25175;50.140;18.990;2023-04-26T02:16:02;98037.06;;;6.05;51.50
39491;BME280;25175;50.140;18.990;2023-04-26T02:19:09;98055.28;;;6.05;51.35
39491;BME280;25175;50.140;18.990;2023-04-26T02:22:15;98040.66;;;6.04;51.34
39491;BME280;25175;50.140;18.990;2023-04-26T02:25:22;98046.09;;;6.09;51.40
39491;BME280;25175;50.140;18.990;2023-04-26T02:28:31;98045.72;;;6.12;51.13
39491;BME280;25175;50.140;18.990;2023-04-26T02:31:37;98038.88;;;6.11;51.59
39491;BME280;25175;50.140;18.990;2023-04-26T02:34:47;98052.50;;;6.06;52.12
39491;BME280;25175;50.140;18.990;2023-04-26T02:37:55;98053.25;;;6.00;52.25
39491;BME280;25175;50.140;18.990;2023-04-26T02:41:01;98038.75;;;5.91;52.59
39491;BME280;25175;50.140;18.990;2023-04-26T02:44:11;98060.75;;;5.89;52.77
39491;BME280;25175;50.140;18.990;2023-04-26T02:47:16;98050.13;;;5.84;52.64
39491;BME280;25175;50.140;18.990;2023-04-26T02:53:51;98040.00;;;5.68;52.65
39491;BME280;25175;50.140;18.990;2023-04-26T02:56:57;98058.44;;;5.73;52.75
39491;BME280;25175;50.140;18.990;2023-04-26T03:00:06;98065.81;;;5.69;52.78
39491;BME280;25175;50.140;18.990;2023-04-26T03:03:17;98062.94;;;5.64;53.20
39491;BME280;25175;50.140;18.990;2023-04-26T03:06:23;98074.53;;;5.62;53.01
39491;BME280;25175;50.140;18.990;2023-04-26T03:09:30;98066.47;;;5.57;53.24
39491;BME280;25175;50.140;18.990;2023-04-26T03:12:38;98055.25;;;5.35;53.57
39491;BME280;25175;50.140;18.990;2023-04-26T03:15:47;98074.03;;;5.52;53.40
39491;BME280;25175;50.140;18.990;2023-04-26T03:18:56;98080.03;;;5.52;53.31
39491;BME280;25175;50.140;18.990;2023-04-26T03:22:02;98079.25;;;5.52;53.08
39491;BME280;25175;50.140;18.990;2023-04-26T03:25:09;98088.84;;;5.51;53.11
39491;BME280;25175;50.140;18.990;2023-04-26T03:28:16;98082.84;;;5.51;52.91
39491;BME280;25175;50.140;18.990;2023-04-26T03:31:24;98089.22;;;5.48;52.72
39491;BME280;25175;50.140;18.990;2023-04-26T03:34:30;98082.25;;;5.34;52.63
39491;BME280;25175;50.140;18.990;2023-04-26T03:37:36;97707.41;;;2.92;52.76
39491;BME280;25175;50.140;18.990;2023-04-26T03:40:46;98087.25;;;5.15;52.88
39491;BME280;25175;50.140;18.990;2023-04-26T03:43:51;98112.53;;;5.21;52.94
39491;BME280;25175;50.140;18.990;2023-04-26T03:47:01;98106.06;;;5.17;53.30
39491;BME280;25175;50.140;18.990;2023-04-26T03:50:08;98087.47;;;4.99;53.23
39491;BME280;25175;50.140;18.990;2023-04-26T03:53:14;98112.00;;;5.11;53.31
39491;BME280;25175;50.140;18.990;2023-04-26T03:56:19;98107.97;;;5.08;53.61
39491;BME280;25175;50.140;18.990;2023-04-26T03:59:27;98125.13;;;5.03;53.77
39491;BME280;25175;50.140;18.990;2023-04-26T04:06:41;98136.97;;;4.91;54.13
39491;BME280;25175;50.140;18.990;2023-04-26T04:09:49;98081.41;;;4.63;54.25
39491;BME280;25175;50.140;18.990;2023-04-26T04:12:56;98128.53;;;4.89;54.23
39491;BME280;25175;50.140;18.990;2023-04-26T04:16:02;98129.50;;;4.88;54.13
39491;BME280;25175;50.140;18.990;2023-04-26T04:19:12;98128.53;;;4.89;54.31
39491;BME280;25175;50.140;18.990;2023-04-26T04:22:20;98132.09;;;4.88;54.26
39491;BME280;25175;50.140;18.990;2023-04-26T04:25:26;98141.50;;;4.89;54.18
39491;BME280;25175;50.140;18.990;2023-04-26T04:28:35;98174.75;;;4.79;54.12
39491;BME280;25175;50.140;18.990;2023-04-26T04:31:43;98148.69;;;4.87;54.56
39491;BME280;25175;50.140;18.990;2023-04-26T04:34:49;98144.94;;;4.89;54.07
39491;BME280;25175;50.140;18.990;2023-04-26T04:37:58;98149.97;;;4.91;54.14
39491;BME280;25175;50.140;18.990;2023-04-26T04:41:06;98153.19;;;4.93;54.24
39491;BME280;25175;50.140;18.990;2023-04-26T04:44:13;98146.97;;;4.94;54.47
39491;BME280;25175;50.140;18.990;2023-04-26T04:47:20;98137.94;;;4.90;54.02
39491;BME280;25175;50.140;18.990;2023-04-26T04:50:26;98143.78;;;4.92;54.23
39491;BME280;25175;50.140;18.990;2023-04-26T04:53:35;98142.78;;;4.93;54.03
39491;BME280;25175;50.140;18.990;2023-04-26T04:56:41;98162.97;;;4.91;54.21
39491;BME280;25175;50.140;18.990;2023-04-26T04:59:49;98153.34;;;4.91;53.85
39491;BME280;25175;50.140;18.990;2023-04-26T05:02:57;98158.53;;;4.91;54.31
39491;BME280;25175;50.140;18.990;2023-04-26T05:06:04;98152.00;;;4.95;54.06
39491;BME280;25175;50.140;18.990;2023-04-26T05:09:13;98158.47;;;4.99;54.35
39491;BME280;25175;50.140;18.990;2023-04-26T05:12:21;98163.13;;;5.04;54.02
39491;BME280;25175;50.140;18.990;2023-04-26T05:15:28;98175.84;;;5.13;54.37
39491;BME280;25175;50.140;18.990;2023-04-26T05:18:54;98174.66;;;5.16;54.02
39491;BME280;25175;50.140;18.990;2023-04-26T05:22:00;98178.09;;;5.16;53.84
39491;BME280;25175;50.140;18.990;2023-04-26T05:25:09;98176.72;;;5.20;54.02
39491;BME280;25175;50.140;18.990;2023-04-26T05:28:16;98183.56;;;5.21;53.73
39491;BME280;25175;50.140;18.990;2023-04-26T05:31:40;98190.97;;;5.24;53.80
39491;BME280;25175;50.140;18.990;2023-04-26T05:34:57;98178.63;;;5.26;53.98
39491;BME280;25175;50.140;18.990;2023-04-26T05:38:05;98172.78;;;5.24;53.52
39491;BME280;25175;50.140;18.990;2023-04-26T05:41:14;98188.00;;;5.42;53.39
39491;BME280;25175;50.140;18.990;2023-04-26T05:44:19;98188.44;;;5.45;53.50
39491;BME280;25175;50.140;18.990;2023-04-26T05:47:26;98163.72;;;5.35;53.63
39491;BME280;25175;50.140;18.990;2023-04-26T05:50:31;98195.97;;;5.55;53.42
39491;BME280;25175;50.140;18.990;2023-04-26T05:53:40;98195.44;;;5.59;53.37
39491;BME280;25175;50.140;18.990;2023-04-26T05:56:47;98167.44;;;5.47;52.92
39491;BME280;25175;50.140;18.990;2023-04-26T05:59:54;98170.84;;;5.62;53.20
39491;BME280;25175;50.140;18.990;2023-04-26T06:03:00;98194.25;;;5.76;52.53
39491;BME280;25175;50.140;18.990;2023-04-26T06:06:06;98197.28;;;5.80;52.53
39491;BME280;25175;50.140;18.990;2023-04-26T06:09:14;98191.69;;;5.83;51.53
39491;BME280;25175;50.140;18.990;2023-04-26T06:12:23;98201.19;;;5.90;51.89
39491;BME280;25175;50.140;18.990;2023-04-26T06:15:28;98195.22;;;5.96;51.46
39491;BME280;25175;50.140;18.990;2023-04-26T06:18:36;98205.13;;;6.01;49.76
39491;BME280;25175;50.140;18.990;2023-04-26T06:21:41;98201.50;;;6.02;49.70
39491;BME280;25175;50.140;18.990;2023-04-26T06:24:48;98212.78;;;6.09;49.57
39491;BME280;25175;50.140;18.990;2023-04-26T06:27:55;98206.66;;;6.16;48.99
39491;BME280;25175;50.140;18.990;2023-04-26T06:31:08;98200.63;;;6.16;49.03
39491;BME280;25175;50.140;18.990;2023-04-26T06:34:14;98217.59;;;6.33;49.15
39491;BME280;25175;50.140;18.990;2023-04-26T06:37:28;98207.06;;;6.41;48.23
39491;BME280;25175;50.140;18.990;2023-04-26T06:40:34;98211.53;;;6.47;48.29
39491;BME280;25175;50.140;18.990;2023-04-26T06:43:43;98214.97;;;6.54;47.82
39491;BME280;25175;50.140;18.990;2023-04-26T06:47:05;98194.31;;;6.52;47.18
39491;BME280;25175;50.140;18.990;2023-04-26T06:53:47;98193.78;;;6.57;47.63
39491;BME280;25175;50.140;18.990;2023-04-26T06:56:54;98207.31;;;6.73;46.87
39491;BME280;25175;50.140;18.990;2023-04-26T07:00:02;98206.97;;;6.83;47.79
39491;BME280;25175;50.140;18.990;2023-04-26T07:03:10;98190.94;;;6.86;48.16
39491;BME280;25175;50.140;18.990;2023-04-26T07:06:15;98203.88;;;7.00;47.48
39491;BME280;25175;50.140;18.990;2023-04-26T07:09:27;98218.16;;;7.04;47.76
39491;BME280;25175;50.140;18.990;2023-04-26T07:12:45;98216.34;;;7.05;47.23
39491;BME280;25175;50.140;18.990;2023-04-26T07:15:53;98221.56;;;7.05;47.46
39491;BME280;25175;50.140;18.990;2023-04-26T07:19:00;98221.13;;;7.01;47.33
39491;BME280;25175;50.140;18.990;2023-04-26T07:22:05;98221.53;;;6.98;47.57
39491;BME280;25175;50.140;18.990;2023-04-26T07:25:11;98209.03;;;6.94;48.54
39491;BME280;25175;50.140;18.990;2023-04-26T07:28:18;98235.22;;;7.07;47.89
39491;BME280;25175;50.140;18.990;2023-04-26T07:31:26;98240.69;;;7.12;48.53
39491;BME280;25175;50.140;18.990;2023-04-26T07:34:32;98225.25;;;7.17;48.59
39491;BME280;25175;50.140;18.990;2023-04-26T07:37:38;98232.47;;;7.15;47.75
39491;BME280;25175;50.140;18.990;2023-04-26T07:40:44;98227.63;;;7.12;47.62
39491;BME280;25175;50.140;18.990;2023-04-26T07:47:34;98225.34;;;7.30;49.06
39491;BME280;25175;50.140;18.990;2023-04-26T07:50:39;98241.69;;;7.45;47.48
39491;BME280;25175;50.140;18.990;2023-04-26T07:53:45;98241.69;;;7.45;48.02
39491;BME280;25175;50.140;18.990;2023-04-26T07:56:50;98243.31;;;7.46;47.39
39491;BME280;25175;50.140;18.990;2023-04-26T07:59:57;98244.53;;;7.50;46.59
39491;BME280;25175;50.140;18.990;2023-04-26T08:03:04;98245.13;;;7.52;46.92
39491;BME280;25175;50.140;18.990;2023-04-26T08:06:11;98257.44;;;7.64;47.00
39491;BME280;25175;50.140;18.990;2023-04-26T08:09:17;98249.47;;;7.79;47.29
39491;BME280;25175;50.140;18.990;2023-04-26T08:12:27;98246.09;;;7.91;46.10
39491;BME280;25175;50.140;18.990;2023-04-26T08:15:32;98246.53;;;8.01;46.49
39491;BME280;25175;50.140;18.990;2023-04-26T08:19:01;98252.16;;;8.05;46.39
39491;BME280;25175;50.140;18.990;2023-04-26T08:22:07;98257.75;;;7.95;46.13
39491;BME280;25175;50.140;18.990;2023-04-26T08:25:18;98253.72;;;7.86;45.30
39491;BME280;25175;50.140;18.990;2023-04-26T08:28:22;98253.91;;;7.85;44.92
39491;BME280;25175;50.140;18.990;2023-04-26T08:31:28;98261.97;;;7.90;44.67
39491;BME280;25175;50.140;18.990;2023-04-26T08:38:09;98249.72;;;7.90;43.92
39491;BME280;25175;50.140;18.990;2023-04-26T08:41:21;98260.78;;;7.99;44.24
39491;BME280;25175;50.140;18.990;2023-04-26T08:44:34;98255.78;;;8.10;44.22
39491;BME280;25175;50.140;18.990;2023-04-26T08:47:47;98260.25;;;8.23;43.61
39491;BME280;25175;50.140;18.990;2023-04-26T08:50:57;98256.63;;;8.37;43.03
39491;BME280;25175;50.140;18.990;2023-04-26T08:54:04;98253.84;;;8.51;42.64
39491;BME280;25175;50.140;18.990;2023-04-26T08:57:11;98289.47;;;8.52;41.85
39491;BME280;25175;50.140;18.990;2023-04-26T09:00:23;98255.47;;;8.59;42.46
39491;BME280;25175;50.140;18.990;2023-04-26T09:03:33;98250.25;;;8.59;41.59
39491;BME280;25175;50.140;18.990;2023-04-26T09:06:41;98268.97;;;8.56;40.18
39491;BME280;25175;50.140;18.990;2023-04-26T09:09:49;98257.66;;;8.29;40.75
39491;BME280;25175;50.140;18.990;2023-04-26T09:12:55;98276.09;;;8.15;39.00
39491;BME280;25175;50.140;18.990;2023-04-26T09:16:05;98272.84;;;8.00;39.98
39491;BME280;25175;50.140;18.990;2023-04-26T09:19:11;98270.22;;;7.93;39.78
39491;BME280;25175;50.140;18.990;2023-04-26T09:22:29;98269.00;;;7.96;41.40
39491;BME280;25175;50.140;18.990;2023-04-26T09:25:37;98255.72;;;7.91;41.10
39491;BME280;25175;50.140;18.990;2023-04-26T09:28:43;98271.22;;;7.92;41.28
39491;BME280;25175;50.140;18.990;2023-04-26T09:31:49;98272.41;;;7.90;41.21
39491;BME280;25175;50.140;18.990;2023-04-26T09:34:56;98276.81;;;7.89;41.90
39491;BME280;25175;50.140;18.990;2023-04-26T09:38:07;98273.00;;;7.92;41.94
39491;BME280;25175;50.140;18.990;2023-04-26T09:41:15;98264.22;;;8.06;43.61
39491;BME280;25175;50.140;18.990;2023-04-26T09:44:21;98265.28;;;8.24;42.04
39491;BME280;25175;50.140;18.990;2023-04-26T09:47:28;98275.34;;;8.34;41.39
39491;BME280;25175;50.140;18.990;2023-04-26T09:50:33;98258.63;;;8.28;40.29
39491;BME280;25175;50.140;18.990;2023-04-26T09:53:48;98278.97;;;8.33;38.93
39491;BME280;25175;50.140;18.990;2023-04-26T09:56:59;98276.31;;;8.26;39.31
39491;BME280;25175;50.140;18.990;2023-04-26T10:00:06;98271.91;;;8.20;41.75
39491;BME280;25175;50.140;18.990;2023-04-26T10:07:59;98277.09;;;8.07;42.02
39491;BME280;25175;50.140;18.990;2023-04-26T10:11:09;98283.56;;;8.18;41.43
39491;BME280;25175;50.140;18.990;2023-04-26T10:14:15;98263.06;;;8.28;40.43
39491;BME280;25175;50.140;18.990;2023-04-26T10:17:21;98259.63;;;8.27;39.45
39491;BME280;25175;50.140;18.990;2023-04-26T10:20:28;98266.28;;;8.30;39.33
39491;BME280;25175;50.140;18.990;2023-04-26T10:23:49;98300.44;;;8.28;38.01
39491;BME280;25175;50.140;18.990;2023-04-26T10:26:58;98268.31;;;8.41;38.38
39491;BME280;25175;50.140;18.990;2023-04-26T10:30:07;98279.63;;;8.67;37.63
39491;BME280;25175;50.140;18.990;2023-04-26T10:33:15;98272.78;;;8.73;36.40
39491;BME280;25175;50.140;18.990;2023-04-26T10:36:21;98273.63;;;8.73;36.69
39491;BME280;25175;50.140;18.990;2023-04-26T10:39:32;98282.44;;;8.72;36.95
39491;BME280;25175;50.140;18.990;2023-04-26T10:43:30;98275.22;;;8.68;37.02
39491;BME280;25175;50.140;18.990;2023-04-26T10:46:39;98269.16;;;8.74;37.75
39491;BME280;25175;50.140;18.990;2023-04-26T10:49:46;98272.00;;;8.79;37.72
39491;BME280;25175;50.140;18.990;2023-04-26T10:53:05;98266.75;;;8.98;36.60
39491;BME280;25175;50.140;18.990;2023-04-26T10:56:49;98026.44;;;7.54;33.53
39491;BME280;25175;50.140;18.990;2023-04-26T11:00:31;98258.66;;;9.13;32.83
39491;BME280;25175;50.140;18.990;2023-04-26T11:03:36;98247.38;;;9.25;33.18
39491;BME280;25175;50.140;18.990;2023-04-26T11:06:51;98261.03;;;9.40;34.37
39491;BME280;25175;50.140;18.990;2023-04-26T11:10:03;98249.50;;;9.54;34.84
39491;BME280;25175;50.140;18.990;2023-04-26T11:13:12;98253.72;;;9.62;34.86
39491;BME280;25175;50.140;18.990;2023-04-26T11:16:21;98258.75;;;9.57;34.13
39491;BME280;25175;50.140;18.990;2023-04-26T11:19:28;98254.94;;;9.59;34.02
39491;BME280;25175;50.140;18.990;2023-04-26T11:22:38;98246.25;;;9.65;34.49
39491;BME280;25175;50.140;18.990;2023-04-26T11:25:45;98251.25;;;9.80;34.10
39491;BME280;25175;50.140;18.990;2023-04-26T11:28:51;98248.81;;;9.85;33.69
39491;BME280;25175;50.140;18.990;2023-04-26T11:31:59;98273.41;;;9.84;34.40
39491;BME280;25175;50.140;18.990;2023-04-26T11:35:08;98261.75;;;9.67;33.10
39491;BME280;25175;50.140;18.990;2023-04-26T11:38:22;98268.06;;;9.53;33.75
39491;BME280;25175;50.140;18.990;2023-04-26T11:41:32;98272.53;;;9.39;33.47
39491;BME280;25175;50.140;18.990;2023-04-26T11:44:50;98266.53;;;9.19;33.88
39491;BME280;25175;50.140;18.990;2023-04-26T11:48:05;98264.72;;;9.07;33.76
39491;BME280;25175;50.140;18.990;2023-04-26T11:51:25;98274.19;;;9.21;32.45
39491;BME280;25175;50.140;18.990;2023-04-26T11:54:46;98262.69;;;9.28;33.17
39491;BME280;25175;50.140;18.990;2023-04-26T11:57:53;98279.97;;;9.42;33.34
39491;BME280;25175;50.140;18.990;2023-04-26T12:01:21;98269.63;;;9.60;34.00
39491;BME280;25175;50.140;18.990;2023-04-26T12:04:34;98272.59;;;9.77;32.54
39491;BME280;25175;50.140;18.990;2023-04-26T12:07:41;98269.78;;;9.85;33.08
39491;BME280;25175;50.140;18.990;2023-04-26T12:10:47;98270.13;;;9.95;32.66
39491;BME280;25175;50.140;18.990;2023-04-26T12:13:51;98288.06;;;9.98;33.44
39491;BME280;25175;50.140;18.990;2023-04-26T12:17:36;98277.78;;;10.03;33.71
39491;BME280;25175;50.140;18.990;2023-04-26T12:20:45;98268.03;;;10.10;33.42
39491;BME280;25175;50.140;18.990;2023-04-26T12:24:24;98217.41;;;9.72;32.87
39491;BME280;25175;50.140;18.990;2023-04-26T12:27:34;98278.56;;;10.03;33.21
39491;BME280;25175;50.140;18.990;2023-04-26T12:30:40;98260.84;;;9.99;34.31
39491;BME280;25175;50.140;18.990;2023-04-26T12:33:46;98259.81;;;10.06;34.09
39491;BME280;25175;50.140;18.990;2023-04-26T12:36:53;98170.72;;;9.56;32.51
39491;BME280;25175;50.140;18.990;2023-04-26T12:40:00;98280.28;;;10.22;31.26
39491;BME280;25175;50.140;18.990;2023-04-26T12:43:06;98279.06;;;10.25;32.49
39491;BME280;25175;50.140;18.990;2023-04-26T12:46:12;98278.44;;;10.23;32.61
39491;BME280;25175;50.140;18.990;2023-04-26T12:49:17;98289.78;;;10.17;32.59
39491;BME280;25175;50.140;18.990;2023-04-26T12:52:26;98276.97;;;9.96;33.78
39491;BME280;25175;50.140;18.990;2023-04-26T12:55:31;98296.59;;;9.87;34.15
39491;BME280;25175;50.140;18.990;2023-04-26T12:58:38;98288.75;;;9.80;34.96
39491;BME280;25175;50.140;18.990;2023-04-26T13:01:48;98293.44;;;9.52;34.55
39491;BME280;25175;50.140;18.990;2023-04-26T13:05:31;98292.03;;;9.56;34.69
39491;BME280;25175;50.140;18.990;2023-04-26T13:08:40;98311.34;;;9.55;35.68
39491;BME280;25175;50.140;18.990;2023-04-26T13:11:46;98308.97;;;9.47;35.79
39491;BME280;25175;50.140;18.990;2023-04-26T13:14:52;98301.69;;;9.49;35.96
39491;BME280;25175;50.140;18.990;2023-04-26T13:18:08;98304.50;;;9.61;35.74
39491;BME280;25175;50.140;18.990;2023-04-26T13:21:14;98301.25;;;9.72;37.16
39491;BME280;25175;50.140;18.990;2023-04-26T13:24:22;98287.50;;;9.76;34.82
39491;BME280;25175;50.140;18.990;2023-04-26T13:27:28;98292.97;;;9.81;34.54
39491;BME280;25175;50.140;18.990;2023-04-26T13:30:33;98296.34;;;9.95;34.92
39491;BME280;25175;50.140;18.990;2023-04-26T13:33:40;98295.09;;;10.04;34.74
39491;BME280;25175;50.140;18.990;2023-04-26T13:36:47;98279.13;;;10.12;34.46
39491;BME280;25175;50.140;18.990;2023-04-26T13:39:56;98303.09;;;10.15;35.17
39491;BME280;25175;50.140;18.990;2023-04-26T13:43:02;98290.25;;;10.01;34.68
39491;BME280;25175;50.140;18.990;2023-04-26T13:46:10;98330.41;;;10.01;34.78
39491;BME280;25175;50.140;18.990;2023-04-26T13:49:23;98344.94;;;9.97;35.20
39491;BME280;25175;50.140;18.990;2023-04-26T13:52:30;98323.78;;;9.92;35.62
39491;BME280;25175;50.140;18.990;2023-04-26T13:55:39;98323.78;;;9.92;34.76
39491;BME280;25175;50.140;18.990;2023-04-26T13:58:45;98316.94;;;9.91;34.80
39491;BME280;25175;50.140;18.990;2023-04-26T14:01:56;98321.00;;;9.81;34.76
39491;BME280;25175;50.140;18.990;2023-04-26T14:05:02;98317.78;;;9.72;35.13
39491;BME280;25175;50.140;18.990;2023-04-26T14:08:10;98323.03;;;9.66;35.24
39491;BME280;25175;50.140;18.990;2023-04-26T14:11:18;98330.09;;;9.59;35.91
39491;BME280;25175;50.140;18.990;2023-04-26T14:14:24;98335.31;;;9.65;35.94
39491;BME280;25175;50.140;18.990;2023-04-26T14:17:32;98312.75;;;9.71;36.37
39491;BME280;25175;50.140;18.990;2023-04-26T14:20:38;98050.75;;;8.19;35.18
39491;BME280;25175;50.140;18.990;2023-04-26T14:23:46;98318.06;;;10.02;35.32
39491;BME280;25175;50.140;18.990;2023-04-26T14:26:54;98318.63;;;10.17;34.35
39491;BME280;25175;50.140;18.990;2023-04-26T14:30:00;98324.50;;;10.12;33.54
39491;BME280;25175;50.140;18.990;2023-04-26T14:33:12;98319.25;;;10.19;32.05
39491;BME280;25175;50.140;18.990;2023-04-26T14:36:22;98328.88;;;10.25;31.69
39491;BME280;25175;50.140;18.990;2023-04-26T14:39:48;98330.13;;;10.16;32.09
39491;BME280;25175;50.140;18.990;2023-04-26T14:42:57;98335.00;;;10.06;32.79
39491;BME280;25175;50.140;18.990;2023-04-26T14:46:03;98339.63;;;10.10;34.02
39491;BME280;25175;50.140;18.990;2023-04-26T14:49:10;98314.03;;;10.12;34.02
39491;BME280;25175;50.140;18.990;2023-04-26T14:52:15;98297.47;;;10.12;33.04
39491;BME280;25175;50.140;18.990;2023-04-26T14:55:21;98336.69;;;10.31;33.49
39491;BME280;25175;50.140;18.990;2023-04-26T14:58:33;98347.66;;;10.22;33.11
39491;BME280;25175;50.140;18.990;2023-04-26T15:01:40;98349.31;;;10.10;33.53
39491;BME280;25175;50.140;18.990;2023-04-26T15:04:54;98350.59;;;9.94;33.78
39491;BME280;25175;50.140;18.990;2023-04-26T15:08:00;98351.25;;;9.83;34.05
39491;BME280;25175;50.140;18.990;2023-04-26T15:11:06;98356.06;;;9.80;35.29
39491;BME280;25175;50.140;18.990;2023-04-26T15:14:16;98350.63;;;9.75;35.24
39491;BME280;25175;50.140;18.990;2023-04-26T15:17:24;98351.22;;;9.70;35.25
39491;BME280;25175;50.140;18.990;2023-04-26T15:20:30;98357.47;;;9.76;35.52
39491;BME280;25175;50.140;18.990;2023-04-26T15:23:42;98361.50;;;9.85;34.91
39491;BME280;25175;50.140;18.990;2023-04-26T15:26:48;98362.28;;;9.92;33.79
39491;BME280;25175;50.140;18.990;2023-04-26T15:29:56;98360.66;;;9.97;34.34
39491;BME280;25175;50.140;18.990;2023-04-26T15:33:02;98354.38;;;10.05;33.88
39491;BME280;25175;50.140;18.990;2023-04-26T15:36:08;98366.25;;;10.14;34.56
39491;BME280;25175;50.140;18.990;2023-04-26T15:39:14;98354.94;;;10.13;34.27
39491;BME280;25175;50.140;18.990;2023-04-26T15:42:19;98360.41;;;10.12;34.40
39491;BME280;25175;50.140;18.990;2023-04-26T15:45:30;98364.84;;;10.11;34.69
39491;BME280;25175;50.140;18.990;2023-04-26T15:48:35;98355.19;;;10.05;34.44
39491;BME280;25175;50.140;18.990;2023-04-26T15:51:42;98361.59;;;10.09;34.19
39491;BME280;25175;50.140;18.990;2023-04-26T15:54:47;98355.34;;;10.10;33.93
39491;BME280;25175;50.140;18.990;2023-04-26T15:57:53;98354.56;;;10.10;34.27
39491;BME280;25175;50.140;18.990;2023-04-26T16:01:16;98356.38;;;10.09;34.56
39491;BME280;25175;50.140;18.990;2023-04-26T16:04:22;98353.53;;;10.11;34.49
39491;BME280;25175;50.140;18.990;2023-04-26T16:07:28;98359.00;;;10.09;33.33
39491;BME280;25175;50.140;18.990;2023-04-26T16:10:34;98351.97;;;10.03;33.42
39491;BME280;25175;50.140;18.990;2023-04-26T16:13:39;98362.81;;;10.07;34.20
39491;BME280;25175;50.140;18.990;2023-04-26T16:16:50;98355.22;;;9.99;33.86
39491;BME280;25175;50.140;18.990;2023-04-26T16:20:13;98367.53;;;9.92;34.65
39491;BME280;25175;50.140;18.990;2023-04-26T16:23:20;98361.28;;;9.93;35.16
39491;BME280;25175;50.140;18.990;2023-04-26T16:26:27;98366.53;;;9.93;34.79
39491;BME280;25175;50.140;18.990;2023-04-26T16:29:33;98367.72;;;9.97;35.07
39491;BME280;25175;50.140;18.990;2023-04-26T16:32:41;98369.34;;;9.98;34.17
39491;BME280;25175;50.140;18.990;2023-04-26T16:35:50;98367.34;;;9.87;33.30
39491;BME280;25175;50.140;18.990;2023-04-26T16:38:56;98367.13;;;9.69;32.90
39491;BME280;25175;50.140;18.990;2023-04-26T16:42:03;98362.31;;;9.66;32.74
39491;BME280;25175;50.140;18.990;2023-04-26T16:45:09;98387.13;;;9.70;32.77
39491;BME280;25175;50.140;18.990;2023-04-26T16:48:18;98395.78;;;9.64;32.53
39491;BME280;25175;50.140;18.990;2023-04-26T16:51:25;98401.81;;;9.58;32.81
39491;BME280;25175;50.140;18.990;2023-04-26T16:54:34;98392.38;;;9.44;33.47
39491;BME280;25175;50.140;18.990;2023-04-26T16:57:43;98409.72;;;9.32;34.15
39491;BME280;25175;50.140;18.990;2023-04-26T17:00:53;98414.13;;;9.25;36.17
39491;BME280;25175;50.140;18.990;2023-04-26T17:04:03;98428.41;;;9.09;37.02
39491;BME280;25175;50.140;18.990;2023-04-26T17:07:09;98421.97;;;8.99;37.49
39491;BME280;25175;50.140;18.990;2023-04-26T17:10:14;98424.75;;;8.91;37.85
39491;BME280;25175;50.140;18.990;2023-04-26T17:13:20;98433.81;;;8.82;38.46